createdAt,value
2023-02-27T00:01:00.768Z,99.74
2023-02-27T00:03:29.522Z,97.81
2023-02-27T00:05:58.064Z,96.71
2023-02-27T00:08:26.365Z,96.61
2023-02-27T00:10:54.700Z,96.36
2023-02-27T00:13:23.108Z,99.57
2023-02-27T00:15:51.947Z,99.73
2023-02-27T00:18:20.212Z,97.95
2023-02-27T00:20:48.698Z,98.18
2023-02-27T00:23:16.980Z,99.58
2023-02-27T00:25:45.266Z,100.00
2023-02-27T00:28:13.526Z,99.49
2023-02-27T00:30:41.824Z,97.96
2023-02-27T00:33:10.042Z,97.74
2023-02-27T00:35:38.375Z,97.60
2023-02-27T00:38:06.530Z,98.78
2023-02-27T00:40:36.112Z,99.97
2023-02-27T00:43:04.886Z,100.00
2023-02-27T00:45:33.146Z,98.01
2023-02-27T00:48:02.349Z,95.50
2023-02-27T00:50:30.815Z,95.98
2023-02-27T00:52:59.115Z,99.17
2023-02-27T00:55:27.554Z,100.00
2023-02-27T00:57:55.984Z,100.00
2023-02-27T01:00:25.739Z,100.00
2023-02-27T01:02:55.797Z,99.41
2023-02-27T01:05:25.617Z,97.21
2023-02-27T01:07:55.233Z,96.55
2023-02-27T01:10:24.500Z,96.27
2023-02-27T01:12:53.914Z,96.59
2023-02-27T01:15:22.820Z,96.46
2023-02-27T01:17:52.091Z,96.39
2023-02-27T01:20:22.548Z,96.99
2023-02-27T01:22:52.180Z,99.78
2023-02-27T01:25:21.085Z,97.68
2023-02-27T01:27:50.249Z,96.81
2023-02-27T01:30:19.436Z,96.27
2023-02-27T01:32:48.924Z,96.96
2023-02-27T01:35:19.472Z,99.17
2023-02-27T01:37:50.425Z,99.88
2023-02-27T01:40:20.624Z,97.98
2023-02-27T01:42:50.239Z,96.85
2023-02-27T01:45:30.549Z,97.23
2023-02-27T01:48:08.808Z,97.39
2023-02-27T01:50:43.623Z,96.20
2023-02-27T01:53:13.179Z,96.67
2023-02-27T01:55:42.440Z,98.69
2023-02-27T01:58:13.509Z,99.72
2023-02-27T02:00:42.701Z,99.49
2023-02-27T02:03:25.462Z,97.22
2023-02-27T02:05:57.119Z,97.74
2023-02-27T02:08:29.204Z,96.99
2023-02-27T02:10:58.895Z,97.92
2023-02-27T02:13:28.560Z,98.13
2023-02-27T02:16:38.273Z,95.99
2023-02-27T02:19:41.229Z,98.83
2023-02-27T02:22:41.555Z,99.87
2023-02-27T02:25:40.708Z,100.00
2023-02-27T02:28:20.844Z,100.00
2023-02-27T02:31:20.692Z,98.26
2023-02-27T02:33:55.609Z,95.59
2023-02-27T02:37:04.416Z,96.30
2023-02-27T02:40:17.349Z,98.63
2023-02-27T02:43:02.170Z,99.10
2023-02-27T02:45:47.256Z,98.39
2023-02-27T02:48:29.381Z,97.40
2023-02-27T02:51:31.790Z,97.56
2023-02-27T02:54:07.767Z,97.43
2023-02-27T02:56:47.594Z,98.20
2023-02-27T02:59:49.993Z,97.11
2023-02-27T03:02:27.207Z,97.22
2023-02-27T03:05:12.710Z,98.43
2023-02-27T03:08:06.498Z,98.68
2023-02-27T03:10:46.981Z,99.81
2023-02-27T03:13:42.873Z,98.97
2023-02-27T03:16:35.177Z,98.62
2023-02-27T03:19:12.511Z,99.77
2023-02-27T03:21:51.154Z,96.64
2023-02-27T03:24:45.575Z,97.15
2023-02-27T03:27:19.130Z,96.76
2023-02-27T03:30:37.057Z,98.20
2023-02-27T03:33:30.949Z,99.41
2023-02-27T03:36:12.583Z,97.71
2023-02-27T03:38:52.610Z,99.52
2023-02-27T03:41:35.972Z,97.68
2023-02-27T03:44:52.888Z,98.67
2023-02-27T03:47:21.458Z,98.06
2023-02-27T03:49:51.225Z,98.43
2023-02-27T03:52:22.813Z,97.11
2023-02-27T03:54:59.972Z,97.93
2023-02-27T03:57:29.377Z,97.29
2023-02-27T03:59:58.841Z,96.96
2023-02-27T04:02:28.531Z,97.34
2023-02-27T04:04:57.218Z,97.09
2023-02-27T04:08:14.247Z,97.58
2023-02-27T04:11:25.080Z,98.81
2023-02-27T04:14:01.608Z,100.00
2023-02-27T04:16:46.079Z,99.58
2023-02-27T04:19:25.398Z,97.80
2023-02-27T04:22:14.049Z,97.20
2023-02-27T04:24:51.364Z,98.52
2023-02-27T04:27:48.823Z,98.43
2023-02-27T04:30:29.151Z,96.30
2023-02-27T04:33:00.160Z,98.16
2023-02-27T04:35:35.022Z,98.26
2023-02-27T04:38:13.563Z,99.99
2023-02-27T04:41:08.449Z,97.55
2023-02-27T04:43:40.791Z,96.79
2023-02-27T04:46:12.706Z,97.00
2023-02-27T04:49:23.688Z,97.81
2023-02-27T04:52:17.083Z,98.21
2023-02-27T04:55:01.985Z,99.73
2023-02-27T04:57:39.266Z,99.91
2023-02-27T05:00:12.797Z,99.44
2023-02-27T05:02:48.050Z,99.39
2023-02-27T05:05:22.087Z,99.43
2023-02-27T05:07:57.371Z,97.73
2023-02-27T05:10:40.241Z,98.09
2023-02-27T05:13:19.758Z,98.21
2023-02-27T05:15:59.467Z,99.64
2023-02-27T05:18:29.501Z,98.51
2023-02-27T05:21:12.510Z,98.68
2023-02-27T05:23:56.327Z,99.64
2023-02-27T05:26:54.027Z,100.00
2023-02-27T05:29:40.604Z,99.97
2023-02-27T05:32:27.552Z,99.97
2023-02-27T05:35:14.900Z,100.00
2023-02-27T05:37:50.448Z,99.73
2023-02-27T05:40:26.201Z,99.63
2023-02-27T05:43:04.966Z,99.99
2023-02-27T05:45:39.264Z,99.79
2023-02-27T05:48:15.060Z,98.33
2023-02-27T05:50:45.825Z,99.22
2023-02-27T05:53:18.983Z,99.14
2023-02-27T05:55:52.239Z,99.29
2023-02-27T05:58:39.767Z,97.76
2023-02-27T06:01:11.532Z,98.84
2023-02-27T06:03:41.617Z,99.80
2023-02-27T06:06:16.979Z,99.54
2023-02-27T06:08:47.125Z,97.77
2023-02-27T06:11:16.131Z,98.34
2023-02-27T06:13:45.390Z,99.13
2023-02-27T06:16:16.220Z,98.48
2023-02-27T06:18:46.886Z,99.13
2023-02-27T06:21:16.230Z,98.94
2023-02-27T06:23:45.153Z,98.84
2023-02-27T06:26:14.474Z,98.31
2023-02-27T06:28:43.714Z,99.58
2023-02-27T06:31:12.065Z,99.44
2023-02-27T06:33:40.388Z,100.00
2023-02-27T06:36:08.601Z,99.60
2023-02-27T06:38:37.388Z,98.91
2023-02-27T06:41:05.908Z,98.67
2023-02-27T06:43:37.231Z,99.90
2023-02-27T06:46:05.945Z,100.00
2023-02-27T06:48:34.997Z,99.66
2023-02-27T06:51:04.348Z,99.25
2023-02-27T06:53:32.603Z,99.83
2023-02-27T06:56:01.171Z,98.74
2023-02-27T06:58:30.587Z,98.61
2023-02-27T07:01:01.003Z,99.39
2023-02-27T07:03:30.834Z,99.10
2023-02-27T07:06:00.597Z,98.91
2023-02-27T07:08:29.617Z,98.22
2023-02-27T07:10:58.875Z,99.06
2023-02-27T07:13:28.210Z,98.24
2023-02-27T07:15:57.551Z,97.53
2023-02-27T07:18:27.299Z,98.09
2023-02-27T07:20:56.845Z,97.49
2023-02-27T07:23:26.249Z,96.12
2023-02-27T07:25:54.779Z,97.60
2023-02-27T07:28:23.396Z,98.16
2023-02-27T07:30:55.611Z,98.73
2023-02-27T07:33:24.646Z,98.14
2023-02-27T07:35:54.197Z,98.97
2023-02-27T07:38:24.309Z,98.94
2023-02-27T07:40:56.649Z,98.69
2023-02-27T07:43:26.288Z,97.79
2023-02-27T07:45:54.885Z,97.31
2023-02-27T07:48:24.632Z,98.80
2023-02-27T07:50:54.049Z,98.90
2023-02-27T07:53:23.093Z,99.01
2023-02-27T07:55:51.838Z,95.46
2023-02-27T07:58:21.173Z,94.89
2023-02-27T08:00:49.733Z,95.08
2023-02-27T08:03:19.231Z,95.44
2023-02-27T08:05:48.992Z,95.07
2023-02-27T08:08:18.499Z,95.50
2023-02-27T08:10:48.025Z,94.87
2023-02-27T08:13:24.972Z,96.95
2023-02-27T08:16:13.789Z,98.65
2023-02-27T08:18:58.603Z,96.40
2023-02-27T08:21:32.114Z,96.33
2023-02-27T08:24:06.554Z,95.85
2023-02-27T08:26:40.136Z,97.51
2023-02-27T08:29:34.325Z,98.61
2023-02-27T08:32:05.888Z,94.80
2023-02-27T08:34:36.525Z,95.27
2023-02-27T08:37:08.398Z,96.36
2023-02-27T08:39:37.227Z,94.48
2023-02-27T08:42:07.514Z,95.96
2023-02-27T08:44:35.808Z,94.61
2023-02-27T08:47:05.042Z,93.82
2023-02-27T08:49:33.468Z,93.87
2023-02-27T08:52:04.561Z,95.18
2023-02-27T08:54:32.805Z,94.12
2023-02-27T08:57:00.893Z,94.65
2023-02-27T08:59:29.121Z,95.10
2023-02-27T09:01:57.635Z,94.67
2023-02-27T09:04:26.995Z,93.60
2023-02-27T09:06:55.760Z,93.68
2023-02-27T09:09:24.209Z,94.66
2023-02-27T09:11:52.599Z,95.76
2023-02-27T09:14:21.238Z,96.59
2023-02-27T09:16:50.120Z,96.83
2023-02-27T09:19:18.550Z,95.49
2023-02-27T09:21:46.884Z,95.19
2023-02-27T09:24:20.133Z,95.29
2023-02-27T09:26:49.871Z,95.33
2023-02-27T09:29:18.773Z,97.58
2023-02-27T09:31:48.265Z,94.69
2023-02-27T09:34:17.691Z,94.63
2023-02-27T09:36:46.931Z,93.83
2023-02-27T09:39:15.993Z,95.82
2023-02-27T09:42:07.126Z,95.75
2023-02-27T09:44:46.934Z,94.98
2023-02-27T09:47:35.859Z,95.89
2023-02-27T09:50:46.044Z,93.83
2023-02-27T09:53:23.893Z,94.70
2023-02-27T09:55:54.260Z,92.64
2023-02-27T09:58:34.530Z,92.43
2023-02-27T10:01:14.464Z,92.67
2023-02-27T10:04:11.128Z,90.90
2023-02-27T10:07:09.039Z,91.44
2023-02-27T10:10:24.105Z,90.78
2023-02-27T10:13:27.389Z,89.95
2023-02-27T10:15:58.804Z,90.80
2023-02-27T10:18:35.560Z,91.98
2023-02-27T10:21:13.390Z,93.00
2023-02-27T10:23:53.336Z,93.01
2023-02-27T10:26:38.358Z,90.82
2023-02-27T10:29:30.217Z,91.90
2023-02-27T10:32:23.241Z,92.47
2023-02-27T10:35:43.360Z,91.69
2023-02-27T10:38:47.605Z,92.55
2023-02-27T10:41:22.544Z,93.01
2023-02-27T10:44:00.193Z,92.89
2023-02-27T10:46:31.416Z,94.69
2023-02-27T10:49:21.292Z,95.57
2023-02-27T10:52:12.096Z,96.26
2023-02-27T10:55:16.662Z,95.10
2023-02-27T10:57:46.755Z,95.38
2023-02-27T11:00:46.509Z,92.71
2023-02-27T11:03:29.194Z,93.64
2023-02-27T11:06:28.410Z,93.77
2023-02-27T11:09:22.380Z,91.89
2023-02-27T11:11:52.717Z,92.64
2023-02-27T11:14:33.325Z,92.28
2023-02-27T11:17:03.912Z,91.06
2023-02-27T11:19:42.605Z,92.43
2023-02-27T11:22:27.035Z,91.79
2023-02-27T11:25:24.748Z,93.12
2023-02-27T11:28:44.028Z,91.91
2023-02-27T11:31:23.649Z,91.74
2023-02-27T11:33:59.631Z,92.31
2023-02-27T11:37:04.025Z,91.77
2023-02-27T11:39:38.793Z,90.94
2023-02-27T11:42:17.651Z,91.64
2023-02-27T11:44:57.011Z,89.98
2023-02-27T11:47:30.968Z,90.47
2023-02-27T11:50:07.078Z,90.25
2023-02-27T11:52:35.862Z,92.35
2023-02-27T11:55:11.861Z,93.14
2023-02-27T11:57:47.904Z,94.35
2023-02-27T12:00:45.973Z,90.62
2023-02-27T12:03:33.361Z,88.64
2023-02-27T12:06:14.000Z,89.60
2023-02-27T12:08:54.816Z,90.64
2023-02-27T12:11:50.692Z,90.49
2023-02-27T12:14:47.056Z,90.54
2023-02-27T12:17:27.647Z,91.65
2023-02-27T12:20:07.914Z,89.92
2023-02-27T12:22:46.401Z,91.83
2023-02-27T12:25:39.930Z,91.50
2023-02-27T12:28:26.902Z,88.54
2023-02-27T12:31:24.078Z,89.55
2023-02-27T12:34:23.295Z,89.76
2023-02-27T12:37:19.042Z,90.51
2023-02-27T12:39:49.308Z,91.49
2023-02-27T12:42:57.695Z,92.33
2023-02-27T12:45:57.838Z,88.72
2023-02-27T12:49:11.742Z,87.72
2023-02-27T12:52:19.604Z,86.50
2023-02-27T12:55:15.334Z,87.25
2023-02-27T12:57:55.896Z,87.97
2023-02-27T13:00:33.662Z,90.31
2023-02-27T13:03:13.473Z,90.13
2023-02-27T13:05:48.319Z,87.42
2023-02-27T13:08:47.394Z,88.52
2023-02-27T13:11:38.695Z,88.73
2023-02-27T13:14:21.095Z,88.98
2023-02-27T13:17:00.383Z,89.70
2023-02-27T13:19:37.729Z,91.20
2023-02-27T13:22:39.768Z,89.70
2023-02-27T13:25:15.981Z,89.55
2023-02-27T13:27:49.932Z,89.57
2023-02-27T13:30:38.802Z,89.04
2023-02-27T13:33:52.390Z,86.50
2023-02-27T13:36:41.568Z,88.57
2023-02-27T13:39:51.309Z,86.00
2023-02-27T13:42:33.203Z,86.79
2023-02-27T13:45:30.004Z,87.12
2023-02-27T13:48:03.850Z,85.98
2023-02-27T13:50:44.618Z,87.64
2023-02-27T13:53:19.303Z,87.51
2023-02-27T13:55:50.993Z,87.33
2023-02-27T13:58:24.816Z,88.50
2023-02-27T14:00:57.370Z,89.20
2023-02-27T14:03:49.288Z,87.79
2023-02-27T14:06:18.586Z,87.49
2023-02-27T14:08:50.106Z,88.36
2023-02-27T14:11:39.794Z,90.48
2023-02-27T14:14:29.698Z,90.76
2023-02-27T14:16:59.445Z,88.44
2023-02-27T14:19:29.342Z,88.15
2023-02-27T14:22:31.575Z,87.75
2023-02-27T14:25:06.678Z,88.25
2023-02-27T14:27:44.484Z,89.16
2023-02-27T14:30:24.868Z,87.43
2023-02-27T14:33:03.301Z,85.29
2023-02-27T14:35:33.038Z,86.68
2023-02-27T14:38:08.414Z,87.98
2023-02-27T14:41:00.518Z,89.01
2023-02-27T14:43:55.240Z,88.73
2023-02-27T14:46:28.643Z,87.55
2023-02-27T14:49:17.956Z,87.49
2023-02-27T14:51:47.887Z,87.91
2023-02-27T14:54:18.550Z,86.50
2023-02-27T14:57:02.023Z,86.21
2023-02-27T14:59:33.523Z,86.74
2023-02-27T15:02:04.573Z,87.99
2023-02-27T15:04:33.863Z,88.93
2023-02-27T15:07:05.564Z,88.96
2023-02-27T15:09:50.039Z,89.69
2023-02-27T15:12:21.466Z,89.19
2023-02-27T15:15:07.950Z,87.65
2023-02-27T15:17:44.750Z,87.02
2023-02-27T15:20:35.713Z,87.77
2023-02-27T15:23:26.597Z,87.92
2023-02-27T15:25:58.399Z,88.07
2023-02-27T15:28:35.769Z,88.76
2023-02-27T15:31:05.944Z,87.90
2023-02-27T15:33:40.938Z,88.82
2023-02-27T15:36:20.032Z,89.45
2023-02-27T15:39:17.253Z,87.45
2023-02-27T15:41:52.398Z,88.37
2023-02-27T15:44:26.818Z,87.30
2023-02-27T15:46:57.310Z,87.57
2023-02-27T15:49:26.600Z,88.24
2023-02-27T15:52:22.118Z,87.68
2023-02-27T15:55:01.293Z,89.09
2023-02-27T15:57:42.090Z,87.74
2023-02-27T16:00:19.592Z,87.18
2023-02-27T16:02:52.896Z,87.95
2023-02-27T16:05:42.430Z,89.59
2023-02-27T16:08:35.010Z,89.80
2023-02-27T16:11:06.319Z,88.86
2023-02-27T16:13:40.626Z,88.21
2023-02-27T16:16:36.932Z,88.20
2023-02-27T16:19:27.300Z,89.47
2023-02-27T16:22:16.838Z,90.13
2023-02-27T16:24:51.251Z,89.23
2023-02-27T16:27:29.612Z,89.72
2023-02-27T16:30:05.192Z,90.42
2023-02-27T16:32:42.356Z,90.46
2023-02-27T16:35:20.578Z,88.45
2023-02-27T16:37:49.396Z,89.49
2023-02-27T16:40:23.543Z,89.54
2023-02-27T16:42:52.951Z,90.34
2023-02-27T16:45:27.533Z,89.97
2023-02-27T16:47:58.915Z,89.58
2023-02-27T16:50:39.429Z,90.13
2023-02-27T16:53:10.045Z,91.04
2023-02-27T16:55:58.263Z,91.14
2023-02-27T16:58:30.050Z,90.12
2023-02-27T17:01:04.299Z,90.84
2023-02-27T17:03:36.885Z,90.78
2023-02-27T17:06:17.293Z,89.68
2023-02-27T17:08:47.251Z,89.78
2023-02-27T17:11:16.305Z,90.01
2023-02-27T17:13:44.641Z,89.98
2023-02-27T17:16:14.489Z,89.39
2023-02-27T17:18:43.215Z,89.18
2023-02-27T17:21:12.427Z,89.67
2023-02-27T17:23:40.720Z,90.73
2023-02-27T17:26:08.908Z,91.34
2023-02-27T17:28:37.068Z,91.47
2023-02-27T17:31:09.798Z,90.14
2023-02-27T17:33:38.217Z,88.96
2023-02-27T17:36:08.304Z,90.15
2023-02-27T17:38:37.243Z,90.91
2023-02-27T17:41:10.848Z,86.80
2023-02-27T17:43:40.058Z,89.27
2023-02-27T17:46:09.507Z,88.53
2023-02-27T17:48:39.326Z,88.01
2023-02-27T17:51:12.183Z,89.08
2023-02-27T17:53:40.569Z,87.96
2023-02-27T17:56:09.797Z,89.32
2023-02-27T17:58:38.115Z,89.75
2023-02-27T18:01:13.413Z,87.81
2023-02-27T18:03:44.159Z,88.74
2023-02-27T18:06:13.174Z,90.11
2023-02-27T18:08:41.418Z,90.78
2023-02-27T18:11:14.322Z,91.45
2023-02-27T18:13:43.034Z,90.44
2023-02-27T18:16:11.693Z,90.84
2023-02-27T18:18:41.578Z,90.80
2023-02-27T18:21:15.920Z,91.57
2023-02-27T18:23:44.554Z,89.39
2023-02-27T18:26:28.958Z,89.54
2023-02-27T18:29:00.577Z,90.11
2023-02-27T18:31:34.266Z,90.07
2023-02-27T18:34:02.847Z,90.04
2023-02-27T18:36:32.354Z,90.21
2023-02-27T18:39:01.121Z,89.10
2023-02-27T18:41:29.454Z,88.45
2023-02-27T18:44:00.910Z,88.15
2023-02-27T18:46:29.445Z,87.98
2023-02-27T18:48:58.306Z,88.47
2023-02-27T18:51:28.077Z,89.01
2023-02-27T18:53:56.375Z,87.08
2023-02-27T18:56:25.911Z,87.08
2023-02-27T18:58:57.272Z,86.06
2023-02-27T19:01:28.011Z,86.55
2023-02-27T19:04:03.621Z,87.94
2023-02-27T19:06:42.242Z,87.21
2023-02-27T19:09:16.199Z,88.52
2023-02-27T19:11:48.098Z,88.46
2023-02-27T19:14:16.542Z,89.34
2023-02-27T19:16:46.152Z,87.10
2023-02-27T19:19:14.592Z,87.36
2023-02-27T19:21:43.158Z,86.91
2023-02-27T19:24:12.572Z,87.40
2023-02-27T19:26:41.415Z,88.98
2023-02-27T19:29:09.815Z,86.93
2023-02-27T19:31:38.266Z,87.71
2023-02-27T19:34:06.834Z,88.03
2023-02-27T19:36:35.184Z,88.78
2023-02-27T19:39:04.678Z,88.84
2023-02-27T19:41:33.620Z,88.67
2023-02-27T19:44:02.214Z,89.12
2023-02-27T19:46:34.098Z,89.36
2023-02-27T19:49:05.290Z,89.12
2023-02-27T19:51:34.191Z,89.41
2023-02-27T19:54:02.408Z,88.88
2023-02-27T19:56:32.913Z,88.93
2023-02-27T19:59:10.398Z,87.89
2023-02-27T20:01:41.595Z,86.80
2023-02-27T20:04:11.388Z,86.45
2023-02-27T20:06:57.743Z,87.56
2023-02-27T20:09:27.500Z,86.32
2023-02-27T20:11:59.164Z,86.99
2023-02-27T20:14:30.263Z,87.25
2023-02-27T20:16:58.834Z,87.15
2023-02-27T20:19:27.313Z,87.41
2023-02-27T20:21:56.659Z,88.38
2023-02-27T20:24:25.521Z,87.41
2023-02-27T20:26:54.286Z,86.86
2023-02-27T20:29:24.352Z,88.05
2023-02-27T20:31:53.987Z,88.25
2023-02-27T20:34:26.376Z,87.81
2023-02-27T20:36:55.901Z,86.19
2023-02-27T20:39:24.597Z,88.15
2023-02-27T20:41:53.440Z,88.29
2023-02-27T20:44:21.799Z,87.31
2023-02-27T20:46:50.724Z,87.64
2023-02-27T20:49:22.861Z,87.47
2023-02-27T20:51:54.140Z,87.69
2023-02-27T20:54:23.108Z,88.24
2023-02-27T20:56:52.806Z,88.52
2023-02-27T20:59:24.720Z,88.16
2023-02-27T21:01:53.956Z,87.78
2023-02-27T21:04:25.263Z,88.06
2023-02-27T21:06:54.762Z,87.92
2023-02-27T21:09:22.974Z,88.29
2023-02-27T21:11:51.331Z,88.02
2023-02-27T21:14:21.013Z,86.85
2023-02-27T21:16:49.225Z,86.15
2023-02-27T21:19:20.871Z,86.50
2023-02-27T21:21:49.172Z,86.07
2023-02-27T21:24:18.081Z,86.99
2023-02-27T21:26:46.812Z,87.13
2023-02-27T21:29:21.119Z,86.82
2023-02-27T21:31:50.897Z,87.64
2023-02-27T21:34:24.957Z,86.05
2023-02-27T21:36:54.824Z,86.65
2023-02-27T21:39:28.322Z,87.53
2023-02-27T21:41:59.561Z,87.32
2023-02-27T21:44:31.598Z,86.85
2023-02-27T21:47:09.893Z,85.72
2023-02-27T21:49:39.417Z,86.37
2023-02-27T21:52:08.746Z,87.06
2023-02-27T21:54:38.613Z,87.93
2023-02-27T21:57:08.487Z,85.85
2023-02-27T21:59:38.084Z,85.91
2023-02-27T22:02:07.065Z,88.38
2023-02-27T22:04:36.383Z,88.93
2023-02-27T22:07:04.657Z,88.73
2023-02-27T22:09:33.208Z,89.89
2023-02-27T22:12:01.507Z,87.80
2023-02-27T22:14:30.151Z,85.98
2023-02-27T22:16:58.855Z,84.58
2023-02-27T22:19:27.115Z,84.78
2023-02-27T22:21:56.128Z,84.64
2023-02-27T22:24:26.021Z,85.47
2023-02-27T22:26:55.252Z,87.65
2023-02-27T22:29:24.139Z,88.11
2023-02-27T22:31:52.793Z,86.24
2023-02-27T22:34:21.830Z,88.28
2023-02-27T22:36:52.741Z,87.61
2023-02-27T22:39:21.937Z,87.81
2023-02-27T22:41:55.936Z,87.60
2023-02-27T22:44:48.471Z,88.58
2023-02-27T22:47:43.220Z,87.56
2023-02-27T22:50:19.250Z,87.24
2023-02-27T22:53:08.062Z,87.59
2023-02-27T22:55:38.674Z,86.84
2023-02-27T22:58:16.891Z,88.48
2023-02-27T23:00:49.116Z,86.82
2023-02-27T23:03:27.306Z,86.73
2023-02-27T23:06:00.273Z,86.74
2023-02-27T23:08:50.441Z,88.02
2023-02-27T23:11:21.975Z,88.43
2023-02-27T23:13:59.489Z,85.15
2023-02-27T23:16:30.215Z,86.58
2023-02-27T23:19:00.345Z,85.46
2023-02-27T23:21:37.027Z,87.50
2023-02-27T23:24:10.226Z,85.26
2023-02-27T23:26:42.728Z,85.17
2023-02-27T23:29:12.786Z,87.22
2023-02-27T23:31:45.241Z,86.76
2023-02-27T23:34:16.521Z,86.37
2023-02-27T23:36:45.824Z,84.29
2023-02-27T23:39:14.253Z,84.90
2023-02-27T23:41:42.692Z,85.44
2023-02-27T23:44:29.013Z,86.88
2023-02-27T23:46:57.579Z,87.64
2023-02-27T23:49:25.891Z,87.91
2023-02-27T23:51:54.049Z,86.50
2023-02-27T23:54:22.340Z,87.63
2023-02-27T23:56:50.747Z,85.76
2023-02-27T23:59:19.024Z,83.14
